createdAt,value
2022-11-17T00:00:18.241Z,15.55
2022-11-17T00:02:45.865Z,14.57
2022-11-17T00:05:13.468Z,19.58
2022-11-17T00:07:40.874Z,18.55
2022-11-17T00:10:08.273Z,16.75
2022-11-17T00:12:53.500Z,16.83
2022-11-17T00:15:20.457Z,15.98
2022-11-17T00:18:08.140Z,15.13
2022-11-17T00:20:57.356Z,16.25
2022-11-17T00:23:25.305Z,17.05
2022-11-17T00:25:52.266Z,16.75
2022-11-17T00:28:19.210Z,16.98
2022-11-17T00:31:04.575Z,18.02
2022-11-17T00:33:49.805Z,18.53
2022-11-17T00:36:16.814Z,17.70
2022-11-17T00:38:43.734Z,21.25
2022-11-17T00:41:10.642Z,20.63
2022-11-17T00:43:37.707Z,20.08
2022-11-17T00:46:04.876Z,19.05
2022-11-17T00:48:31.802Z,17.98
2022-11-17T00:51:03.650Z,18.40
2022-11-17T00:53:30.705Z,16.75
2022-11-17T00:55:57.695Z,17.50
2022-11-17T00:58:24.632Z,18.65
2022-11-17T01:00:51.525Z,17.85
2022-11-17T01:03:18.424Z,20.88
2022-11-17T01:05:45.390Z,18.40
2022-11-17T01:08:12.295Z,18.70
2022-11-17T01:10:39.411Z,16.70
2022-11-17T01:13:06.393Z,16.50
2022-11-17T01:15:34.240Z,16.60
2022-11-17T01:18:01.154Z,17.15
2022-11-17T01:20:28.362Z,17.02
2022-11-17T01:22:55.485Z,16.70
2022-11-17T01:25:22.438Z,16.52
2022-11-17T01:27:49.376Z,17.10
2022-11-17T01:30:18.197Z,16.67
2022-11-17T01:32:45.208Z,17.27
2022-11-17T01:35:12.168Z,16.65
2022-11-17T01:37:51.383Z,17.10
2022-11-17T01:40:18.379Z,16.63
2022-11-17T01:42:45.382Z,15.30
2022-11-17T01:45:19.972Z,15.85
2022-11-17T01:47:54.982Z,17.38
2022-11-17T01:50:27.615Z,17.40
2022-11-17T01:52:57.548Z,17.48
2022-11-17T01:55:28.649Z,16.60
2022-11-17T01:58:00.252Z,16.85
2022-11-17T02:00:28.243Z,16.98
2022-11-17T02:02:55.847Z,16.48
2022-11-17T02:05:22.809Z,15.75
2022-11-17T02:07:53.257Z,15.98
2022-11-17T02:10:20.579Z,15.75
2022-11-17T02:12:48.803Z,16.05
2022-11-17T02:15:15.792Z,16.13
2022-11-17T02:17:43.955Z,15.30
2022-11-17T02:20:18.611Z,15.05
2022-11-17T02:23:16.742Z,15.18
2022-11-17T02:25:52.339Z,15.98
2022-11-17T02:28:25.962Z,15.68
2022-11-17T02:31:15.728Z,14.10
2022-11-17T02:34:11.533Z,15.90
2022-11-17T02:36:56.420Z,15.35
2022-11-17T02:39:31.436Z,14.38
2022-11-17T02:42:14.225Z,15.70
2022-11-17T02:44:57.521Z,15.55
2022-11-17T02:47:29.346Z,16.33
2022-11-17T02:50:15.318Z,15.13
2022-11-17T02:52:42.500Z,15.43
2022-11-17T02:55:11.074Z,15.20
2022-11-17T02:57:40.001Z,16.08
2022-11-17T03:00:14.895Z,16.55
2022-11-17T03:03:12.919Z,16.77
2022-11-17T03:05:52.156Z,15.82
2022-11-17T03:08:37.908Z,15.65
2022-11-17T03:11:07.421Z,16.73
2022-11-17T03:14:05.213Z,17.48
2022-11-17T03:16:41.160Z,16.38
2022-11-17T03:19:25.896Z,15.75
2022-11-17T03:22:07.681Z,15.63
2022-11-17T03:24:41.948Z,17.33
2022-11-17T03:27:16.873Z,16.45
2022-11-17T03:29:50.111Z,17.13
2022-11-17T03:32:18.953Z,17.52
2022-11-17T03:35:03.657Z,17.67
2022-11-17T03:37:34.356Z,15.85
2022-11-17T03:40:13.886Z,16.90
2022-11-17T03:42:44.350Z,16.20
2022-11-17T03:45:30.748Z,16.92
2022-11-17T03:48:04.636Z,16.20
2022-11-17T03:50:40.857Z,16.63
2022-11-17T03:53:07.889Z,17.75
2022-11-17T03:55:55.133Z,18.52
2022-11-17T03:58:24.491Z,18.92
2022-11-17T04:00:53.340Z,19.83
2022-11-17T04:03:23.523Z,19.33
2022-11-17T04:05:50.515Z,18.92
2022-11-17T04:08:17.524Z,19.02
2022-11-17T04:11:04.767Z,19.83
2022-11-17T04:13:50.339Z,18.85
2022-11-17T04:16:17.319Z,19.05
2022-11-17T04:18:44.415Z,17.27
2022-11-17T04:21:11.370Z,18.13
2022-11-17T04:23:38.564Z,18.65
2022-11-17T04:26:24.301Z,18.80
2022-11-17T04:28:51.477Z,19.50
2022-11-17T04:31:26.769Z,17.60
2022-11-17T04:33:56.701Z,17.70
2022-11-17T04:36:26.750Z,18.08
2022-11-17T04:38:56.072Z,18.88
2022-11-17T04:41:43.557Z,19.05
2022-11-17T04:44:12.409Z,17.15
2022-11-17T04:46:40.410Z,17.95
2022-11-17T04:49:08.289Z,16.60
2022-11-17T04:51:35.663Z,17.40
2022-11-17T04:54:04.896Z,17.25
2022-11-17T04:56:32.413Z,19.65
2022-11-17T04:58:59.429Z,17.60
2022-11-17T05:01:27.956Z,18.88
2022-11-17T05:03:59.872Z,17.67
2022-11-17T05:06:38.624Z,18.92
2022-11-17T05:09:23.861Z,18.80
2022-11-17T05:12:09.178Z,17.15
2022-11-17T05:14:36.152Z,18.90
2022-11-17T05:17:10.565Z,17.77
2022-11-17T05:19:46.681Z,18.67
2022-11-17T05:22:35.067Z,17.90
2022-11-17T05:25:02.812Z,17.83
2022-11-17T05:27:30.130Z,18.42
2022-11-17T05:29:57.068Z,18.23
2022-11-17T05:32:24.033Z,18.77
2022-11-17T05:34:51.121Z,19.00
2022-11-17T05:37:18.257Z,19.17
2022-11-17T05:39:45.159Z,18.30
2022-11-17T05:42:12.268Z,17.67
2022-11-17T05:44:40.007Z,17.88
2022-11-17T05:47:07.009Z,19.25
2022-11-17T05:49:34.005Z,18.42
2022-11-17T05:52:00.968Z,18.55
2022-11-17T05:54:27.935Z,18.25
2022-11-17T05:57:09.688Z,17.27
2022-11-17T05:59:53.540Z,17.35
2022-11-17T06:02:27.464Z,18.77
2022-11-17T06:04:54.424Z,19.40
2022-11-17T06:07:21.393Z,18.45
2022-11-17T06:09:48.349Z,18.80
2022-11-17T06:12:15.476Z,17.67
2022-11-17T06:14:42.854Z,18.08
2022-11-17T06:17:27.353Z,19.38
2022-11-17T06:20:08.460Z,17.83
2022-11-17T06:22:35.988Z,18.40
2022-11-17T06:25:05.139Z,19.02
2022-11-17T06:27:33.179Z,17.85
2022-11-17T06:30:03.645Z,18.52
2022-11-17T06:32:34.854Z,18.40
2022-11-17T06:35:05.251Z,19.50
2022-11-17T06:37:32.313Z,18.65
2022-11-17T06:39:59.252Z,19.88
2022-11-17T06:42:44.755Z,20.17
2022-11-17T06:45:12.314Z,18.93
2022-11-17T06:47:39.613Z,18.15
2022-11-17T06:50:07.577Z,19.98
2022-11-17T06:52:34.569Z,17.70
2022-11-17T06:55:01.633Z,18.52
2022-11-17T06:57:29.874Z,18.77
2022-11-17T06:59:56.921Z,18.83
2022-11-17T07:02:23.908Z,19.70
2022-11-17T07:04:50.949Z,19.80
2022-11-17T07:07:17.889Z,19.13
2022-11-17T07:09:44.944Z,19.65
2022-11-17T07:12:11.883Z,18.80
2022-11-17T07:14:38.812Z,18.92
2022-11-17T07:17:06.984Z,19.67
2022-11-17T07:19:34.152Z,19.50
2022-11-17T07:22:01.072Z,18.88
2022-11-17T07:24:27.964Z,19.77
2022-11-17T07:26:55.089Z,20.83
2022-11-17T07:29:22.091Z,19.70
2022-11-17T07:31:49.104Z,20.80
2022-11-17T07:34:16.438Z,19.58
2022-11-17T07:36:43.381Z,20.90
2022-11-17T07:39:10.420Z,20.85
2022-11-17T07:41:37.395Z,20.13
2022-11-17T07:44:04.458Z,19.83
2022-11-17T07:46:31.470Z,19.77
2022-11-17T07:48:58.432Z,20.02
2022-11-17T07:51:25.553Z,20.05
2022-11-17T07:53:52.689Z,19.77
2022-11-17T07:56:19.735Z,19.95
2022-11-17T07:58:46.727Z,18.80
2022-11-17T08:01:15.560Z,20.05
2022-11-17T08:03:43.469Z,19.52
2022-11-17T08:06:10.729Z,20.60
2022-11-17T08:08:38.824Z,21.38
2022-11-17T08:11:08.756Z,21.25
2022-11-17T08:13:36.987Z,21.25
2022-11-17T08:16:04.462Z,22.95
2022-11-17T08:18:31.870Z,22.65
2022-11-17T08:21:10.800Z,22.77
2022-11-17T08:23:38.723Z,21.92
2022-11-17T08:26:07.288Z,20.33
2022-11-17T08:28:35.086Z,20.20
2022-11-17T08:31:04.185Z,20.27
2022-11-17T08:33:31.848Z,21.23
2022-11-17T08:36:00.105Z,19.77
2022-11-17T08:38:29.281Z,19.38
2022-11-17T08:41:02.468Z,20.38
2022-11-17T08:43:29.875Z,20.48
2022-11-17T08:45:57.309Z,21.60
2022-11-17T08:48:25.391Z,20.33
2022-11-17T08:50:52.600Z,19.13
2022-11-17T08:53:21.370Z,20.52
2022-11-17T08:55:48.499Z,19.92
2022-11-17T08:58:15.787Z,18.77
2022-11-17T09:00:43.139Z,20.17
2022-11-17T09:03:11.083Z,20.08
2022-11-17T09:05:44.027Z,20.20
2022-11-17T09:08:43.515Z,18.73
2022-11-17T09:10:59.119Z,19.20
2022-11-17T09:13:26.108Z,20.27
2022-11-17T09:15:53.254Z,20.55
2022-11-17T09:18:20.268Z,20.88
2022-11-17T09:20:47.414Z,21.13
2022-11-17T09:23:14.418Z,19.65
2022-11-17T09:25:41.461Z,19.55
2022-11-17T09:28:08.345Z,21.73
2022-11-17T09:30:36.661Z,20.08
2022-11-17T09:33:03.624Z,19.75
2022-11-17T09:35:30.640Z,21.08
2022-11-17T09:38:01.651Z,19.27
2022-11-17T09:40:36.347Z,18.27
2022-11-17T09:43:24.062Z,20.42
2022-11-17T09:48:45.965Z,20.25
2022-11-17T09:51:16.769Z,19.50
2022-11-17T09:53:49.615Z,18.80
2022-11-17T09:56:17.140Z,20.92
2022-11-17T09:58:48.910Z,20.88
2022-11-17T10:01:18.785Z,20.65
2022-11-17T10:03:48.388Z,19.42
2022-11-17T10:06:27.393Z,20.63
2022-11-17T10:09:00.649Z,20.35
2022-11-17T10:11:33.315Z,20.20
2022-11-17T10:14:10.739Z,17.40
2022-11-17T10:16:40.233Z,21.13
2022-11-17T10:19:31.331Z,21.48
2022-11-17T10:22:04.373Z,18.92
2022-11-17T10:24:55.418Z,19.98
2022-11-17T10:27:25.593Z,18.63
2022-11-17T10:29:59.906Z,18.42
2022-11-17T10:32:30.205Z,18.70
2022-11-17T10:35:18.241Z,18.83
2022-11-17T10:37:53.927Z,19.45
2022-11-17T10:40:32.089Z,17.83
2022-11-17T10:43:11.297Z,19.13
2022-11-17T10:45:49.083Z,19.23
2022-11-17T10:48:22.989Z,18.33
2022-11-17T10:51:04.988Z,18.25
2022-11-17T10:53:41.304Z,17.63
2022-11-17T10:56:19.862Z,17.38
2022-11-17T10:58:56.639Z,17.67
2022-11-17T11:01:35.000Z,18.08
2022-11-17T11:04:04.159Z,18.83
2022-11-17T11:06:33.052Z,18.25
2022-11-17T11:09:06.008Z,19.65
2022-11-17T11:11:36.278Z,18.80
2022-11-17T11:14:20.316Z,17.00
2022-11-17T11:16:49.419Z,16.77
2022-11-17T11:19:18.603Z,17.23
2022-11-17T11:22:08.431Z,16.40
2022-11-17T11:25:00.226Z,39.85
2022-11-17T11:27:35.270Z,18.10
2022-11-17T11:30:09.957Z,17.25
2022-11-17T11:32:44.940Z,17.13
2022-11-17T11:35:36.869Z,17.10
2022-11-17T11:38:37.648Z,18.73
2022-11-17T11:41:17.123Z,18.08
2022-11-17T11:44:03.035Z,18.08
2022-11-17T11:46:36.281Z,18.13
2022-11-17T11:49:16.501Z,18.42
2022-11-17T11:51:46.212Z,19.52
2022-11-17T11:54:20.405Z,19.98
2022-11-17T11:56:48.465Z,19.15
2022-11-17T11:59:48.347Z,19.10
2022-11-17T12:02:25.093Z,18.02
2022-11-17T12:05:19.727Z,17.55
2022-11-17T12:08:13.351Z,18.92
2022-11-17T12:10:53.657Z,19.50
2022-11-17T12:13:23.004Z,19.40
2022-11-17T12:15:50.347Z,18.92
2022-11-17T12:18:17.301Z,20.58
2022-11-17T12:20:57.879Z,19.48
2022-11-17T12:23:42.997Z,19.20
2022-11-17T12:26:25.565Z,17.90
2022-11-17T12:29:14.463Z,18.77
2022-11-17T12:31:43.588Z,18.38
2022-11-17T12:34:26.544Z,17.42
2022-11-17T12:37:15.055Z,19.38
2022-11-17T12:40:00.670Z,18.30
2022-11-17T12:42:29.519Z,18.38
2022-11-17T12:45:07.822Z,17.90
2022-11-17T12:47:59.552Z,18.70
2022-11-17T12:50:51.826Z,18.23
2022-11-17T12:53:40.037Z,18.60
2022-11-17T12:56:38.397Z,20.15
2022-11-17T12:59:38.201Z,19.15
2022-11-17T13:02:26.226Z,18.00
2022-11-17T13:04:57.661Z,18.63
2022-11-17T13:07:26.469Z,17.20
2022-11-17T13:09:57.090Z,18.13
2022-11-17T13:12:31.944Z,18.95
2022-11-17T13:15:04.545Z,18.08
2022-11-17T13:17:44.408Z,17.60
2022-11-17T13:20:25.322Z,18.30
2022-11-17T13:23:06.638Z,17.20
2022-11-17T13:25:34.746Z,17.70
2022-11-17T13:28:05.100Z,17.30
2022-11-17T13:30:33.207Z,18.85
2022-11-17T13:33:02.404Z,17.55
2022-11-17T13:35:32.772Z,17.02
2022-11-17T13:38:21.092Z,18.33
2022-11-17T13:40:50.325Z,16.85
2022-11-17T13:43:20.738Z,16.45
2022-11-17T13:45:51.720Z,18.35
2022-11-17T13:48:36.639Z,18.95
2022-11-17T13:51:23.121Z,17.92
2022-11-17T13:53:58.080Z,18.33
2022-11-17T13:56:29.689Z,17.00
2022-11-17T13:58:57.390Z,18.50
2022-11-17T14:01:32.811Z,17.92
2022-11-17T14:04:20.613Z,17.70
2022-11-17T14:06:55.519Z,16.83
2022-11-17T14:09:23.521Z,20.48
2022-11-17T14:11:51.445Z,18.52
2022-11-17T14:14:32.764Z,18.17
2022-11-17T14:17:28.231Z,18.92
2022-11-17T14:19:55.304Z,17.55
2022-11-17T14:22:31.429Z,17.50
2022-11-17T14:24:58.995Z,18.83
2022-11-17T14:27:38.100Z,16.80
2022-11-17T14:30:05.840Z,18.38
2022-11-17T14:32:34.710Z,19.48
2022-11-17T14:35:01.740Z,19.45
2022-11-17T14:37:32.409Z,18.42
2022-11-17T14:40:00.708Z,18.35
2022-11-17T14:42:33.000Z,17.55
2022-11-17T14:45:03.213Z,19.75
2022-11-17T14:47:30.213Z,18.50
2022-11-17T14:49:57.168Z,18.42
2022-11-17T14:52:24.174Z,17.60
2022-11-17T14:54:51.192Z,17.92
2022-11-17T14:57:18.157Z,18.48
2022-11-17T14:59:45.178Z,18.30
2022-11-17T15:02:12.323Z,19.33
2022-11-17T15:04:56.367Z,19.15
2022-11-17T15:07:24.073Z,18.10
2022-11-17T15:09:51.099Z,18.67
2022-11-17T15:12:18.246Z,19.10
2022-11-17T15:14:47.714Z,18.77
2022-11-17T15:17:14.913Z,18.30
2022-11-17T15:19:42.443Z,17.75
2022-11-17T15:22:09.521Z,18.67
2022-11-17T15:24:36.635Z,17.10
2022-11-17T15:27:03.668Z,18.88
2022-11-17T15:29:30.593Z,17.63
2022-11-17T15:31:57.522Z,18.15
2022-11-17T15:34:24.517Z,16.35
2022-11-17T15:36:51.756Z,16.80
2022-11-17T15:39:20.694Z,18.27
2022-11-17T15:41:49.597Z,18.15
2022-11-17T15:44:18.874Z,18.65
2022-11-17T15:46:47.791Z,18.08
2022-11-17T15:49:15.746Z,18.15
2022-11-17T15:51:42.971Z,18.33
2022-11-17T15:54:18.532Z,18.52
2022-11-17T15:56:47.595Z,18.13
2022-11-17T15:59:14.864Z,17.95
2022-11-17T16:01:42.159Z,17.63
2022-11-17T16:04:11.446Z,17.85
2022-11-17T16:06:41.180Z,16.67
2022-11-17T16:09:09.269Z,17.85
2022-11-17T16:11:37.067Z,17.80
2022-11-17T16:14:05.041Z,17.52
2022-11-17T16:16:34.136Z,18.27
2022-11-17T16:19:01.343Z,17.30
2022-11-17T16:21:28.479Z,16.80
2022-11-17T16:23:57.733Z,17.95
2022-11-17T16:26:26.520Z,17.88
2022-11-17T16:28:57.576Z,19.27
2022-11-17T16:31:30.022Z,17.60
2022-11-17T16:33:59.699Z,18.77
2022-11-17T16:36:36.125Z,17.83
2022-11-17T16:39:06.920Z,17.45
2022-11-17T16:41:38.943Z,17.90
2022-11-17T16:44:11.732Z,17.73
2022-11-17T16:46:42.647Z,16.90
2022-11-17T16:49:12.287Z,16.58
2022-11-17T16:51:39.684Z,17.83
2022-11-17T16:54:10.783Z,16.73
2022-11-17T16:56:37.751Z,19.05
2022-11-17T16:59:04.981Z,18.20
2022-11-17T17:01:34.670Z,17.80
2022-11-17T17:04:04.465Z,17.95
2022-11-17T17:06:31.560Z,18.58
2022-11-17T17:09:04.479Z,18.27
2022-11-17T17:11:32.904Z,20.00
2022-11-17T17:14:02.919Z,19.50
2022-11-17T17:16:31.727Z,20.70
2022-11-17T17:19:00.844Z,20.10
2022-11-17T17:21:29.019Z,19.88
2022-11-17T17:23:57.123Z,20.95
2022-11-17T17:26:26.157Z,21.73
2022-11-17T17:28:56.454Z,21.77
2022-11-17T17:31:25.495Z,23.98
2022-11-17T17:33:54.412Z,23.58
2022-11-17T17:36:23.548Z,22.42
2022-11-17T17:38:55.855Z,23.33
2022-11-17T17:41:29.155Z,23.00
2022-11-17T17:44:07.085Z,24.30
2022-11-17T17:46:36.984Z,23.13
2022-11-17T17:49:04.337Z,22.20
2022-11-17T17:51:31.354Z,24.17
2022-11-17T17:54:00.977Z,23.92
2022-11-17T17:56:28.599Z,22.55
2022-11-17T17:58:56.360Z,23.58
2022-11-17T18:01:29.027Z,23.63
2022-11-17T18:04:04.723Z,23.23
2022-11-17T18:06:38.070Z,25.85
2022-11-17T18:09:07.060Z,24.40
2022-11-17T18:11:35.684Z,24.65
2022-11-17T18:14:03.424Z,25.30
2022-11-17T18:16:33.403Z,25.13
2022-11-17T18:19:03.458Z,24.83
2022-11-17T18:21:32.191Z,25.70
2022-11-17T18:24:01.321Z,24.15
2022-11-17T18:26:31.569Z,25.20
2022-11-17T18:29:07.916Z,25.80
2022-11-17T18:31:36.396Z,24.92
2022-11-17T18:34:06.327Z,25.15
2022-11-17T18:36:34.845Z,26.95
2022-11-17T18:39:01.809Z,26.40
2022-11-17T18:41:30.857Z,25.85
2022-11-17T18:43:58.630Z,24.58
2022-11-17T18:46:28.885Z,26.00
2022-11-17T18:48:56.769Z,27.23
2022-11-17T18:51:26.559Z,26.65
2022-11-17T18:53:54.726Z,26.50
2022-11-17T18:56:23.648Z,26.98
2022-11-17T18:58:51.252Z,27.67
2022-11-17T19:01:27.877Z,28.33
2022-11-17T19:03:56.951Z,27.58
2022-11-17T19:06:25.436Z,26.88
2022-11-17T19:08:53.802Z,27.48
2022-11-17T19:11:22.277Z,26.35
2022-11-17T19:13:49.865Z,25.77
2022-11-17T19:16:18.529Z,27.67
2022-11-17T19:18:46.905Z,27.05
2022-11-17T19:21:16.395Z,28.40
2022-11-17T19:23:51.012Z,28.48
2022-11-17T19:26:29.528Z,26.77
2022-11-17T19:28:58.493Z,27.85
2022-11-17T19:31:26.600Z,28.13
2022-11-17T19:33:54.250Z,28.50
2022-11-17T19:36:23.813Z,28.88
2022-11-17T19:38:55.986Z,26.45
2022-11-17T19:41:36.958Z,26.80
2022-11-17T19:44:06.864Z,27.55
2022-11-17T19:46:36.135Z,25.95
2022-11-17T19:49:05.889Z,27.73
2022-11-17T19:51:34.735Z,26.58
2022-11-17T19:54:04.213Z,25.45
2022-11-17T19:56:31.428Z,26.27
2022-11-17T19:58:58.626Z,25.58
2022-11-17T20:01:28.104Z,24.88
2022-11-17T20:03:56.277Z,26.25
2022-11-17T20:06:29.138Z,26.45
2022-11-17T20:08:57.522Z,25.35
2022-11-17T20:11:28.573Z,26.17
2022-11-17T20:13:55.983Z,25.38
2022-11-17T20:16:25.524Z,25.77
2022-11-17T20:18:58.013Z,23.98
2022-11-17T20:21:26.421Z,25.55
2022-11-17T20:23:54.322Z,24.55
2022-11-17T20:26:26.879Z,25.25
2022-11-17T20:28:54.208Z,24.23
2022-11-17T20:31:22.628Z,24.30
2022-11-17T20:33:49.757Z,23.10
2022-11-17T20:36:19.276Z,23.42
2022-11-17T20:38:51.545Z,23.50
2022-11-17T20:41:20.888Z,22.10
2022-11-17T20:43:49.343Z,22.35
2022-11-17T20:46:16.834Z,22.25
2022-11-17T20:48:44.649Z,22.38
2022-11-17T20:51:13.860Z,23.40
2022-11-17T20:53:41.031Z,25.10
2022-11-17T20:56:10.539Z,22.50
2022-11-17T20:58:38.315Z,22.75
2022-11-17T21:01:14.588Z,22.90
2022-11-17T21:03:42.466Z,24.83
2022-11-17T21:06:09.495Z,22.98
2022-11-17T21:08:38.227Z,21.50
2022-11-17T21:11:10.944Z,21.50
2022-11-17T21:13:38.401Z,20.85
2022-11-17T21:16:11.545Z,22.20
2022-11-17T21:18:44.329Z,21.45
2022-11-17T21:21:11.652Z,20.17
2022-11-17T21:23:40.273Z,21.13
2022-11-17T21:26:09.136Z,20.80
2022-11-17T21:28:37.327Z,21.08
2022-11-17T21:31:05.577Z,21.63
2022-11-17T21:33:32.548Z,20.95
2022-11-17T21:36:18.065Z,20.92
2022-11-17T21:38:46.856Z,20.30
2022-11-17T21:41:25.651Z,22.33
2022-11-17T21:43:54.195Z,21.67
2022-11-17T21:46:23.437Z,20.58
2022-11-17T21:48:51.481Z,21.58
2022-11-17T21:51:27.905Z,20.95
2022-11-17T21:53:56.682Z,21.02
2022-11-17T21:56:27.551Z,20.23
2022-11-17T21:58:59.712Z,20.73
2022-11-17T22:01:27.301Z,20.92
2022-11-17T22:03:54.493Z,21.05
2022-11-17T22:06:23.815Z,20.83
2022-11-17T22:08:50.857Z,19.77
2022-11-17T22:11:35.097Z,19.48
2022-11-17T22:14:20.123Z,18.80
2022-11-17T22:16:49.311Z,20.42
2022-11-17T22:19:17.981Z,19.80
2022-11-17T22:21:47.008Z,18.65
2022-11-17T22:24:14.196Z,17.38
2022-11-17T22:26:43.550Z,19.90
2022-11-17T22:29:14.115Z,16.95
2022-11-17T22:31:41.609Z,18.35
2022-11-17T22:34:08.660Z,18.77
2022-11-17T22:36:35.789Z,18.55
2022-11-17T22:39:03.533Z,17.52
2022-11-17T22:41:30.415Z,19.50
2022-11-17T22:43:58.201Z,18.20
2022-11-17T22:46:28.077Z,19.40
2022-11-17T22:48:55.112Z,17.77
2022-11-17T22:51:40.548Z,17.52
2022-11-17T22:54:08.683Z,18.05
2022-11-17T22:56:36.094Z,19.45
2022-11-17T22:59:03.228Z,17.60
2022-11-17T23:01:30.182Z,17.13
2022-11-17T23:03:57.136Z,18.88
2022-11-17T23:06:24.456Z,18.02
2022-11-17T23:08:51.400Z,18.85
2022-11-17T23:14:08.139Z,17.13
2022-11-17T23:16:36.696Z,17.92
2022-11-17T23:19:04.326Z,17.00
2022-11-17T23:21:31.307Z,18.90
2022-11-17T23:23:58.212Z,18.20
2022-11-17T23:26:25.234Z,17.55
2022-11-17T23:28:52.234Z,18.30
2022-11-17T23:31:19.216Z,19.33
2022-11-17T23:33:48.280Z,17.95
2022-11-17T23:36:18.467Z,18.17
2022-11-17T23:38:46.009Z,18.15
2022-11-17T23:41:14.521Z,17.08
2022-11-17T23:43:41.829Z,18.48
2022-11-17T23:46:14.110Z,17.27
2022-11-17T23:48:41.485Z,17.08
2022-11-17T23:51:10.876Z,18.70
2022-11-17T23:53:38.260Z,18.55
2022-11-17T23:56:05.863Z,18.45
2022-11-17T23:58:33.426Z,18.25
